createdAt,value
2018-12-12T00:00:11.096Z,87.19
2018-12-12T00:00:37.199Z,87.38
2018-12-12T00:01:03.311Z,87.19
2018-12-12T00:01:29.423Z,86.91
2018-12-12T00:01:55.520Z,86.95
2018-12-12T00:02:21.625Z,87.38
2018-12-12T00:02:47.745Z,86.82
2018-12-12T00:03:13.842Z,87.05
2018-12-12T00:03:39.978Z,86.91
2018-12-12T00:04:06.108Z,87.14
2018-12-12T00:04:32.232Z,87.01
2018-12-12T00:04:58.342Z,87.29
2018-12-12T00:05:24.456Z,87.01
2018-12-12T00:05:50.580Z,87.19
2018-12-12T00:06:16.688Z,86.91
2018-12-12T00:06:42.800Z,87.01
2018-12-12T00:07:08.927Z,87.24
2018-12-12T00:07:35.045Z,87.1
2018-12-12T00:08:01.198Z,87.1
2018-12-12T00:08:27.281Z,86.67
2018-12-12T00:08:53.382Z,86.67
2018-12-12T00:09:19.494Z,86.76
2018-12-12T00:09:45.630Z,86.67
2018-12-12T00:10:11.780Z,86.63
2018-12-12T00:10:37.888Z,86.76
2018-12-12T00:11:04.017Z,86.29
2018-12-12T00:11:30.158Z,86.47
2018-12-12T00:11:56.331Z,86.47
2018-12-12T00:12:22.439Z,86.76
2018-12-12T00:12:48.546Z,86.38
2018-12-12T00:13:14.657Z,86.47
2018-12-12T00:13:40.797Z,86.72
2018-12-12T00:14:06.912Z,86.47
2018-12-12T00:14:33.015Z,86.47
2018-12-12T00:14:59.118Z,86.67
2018-12-12T00:15:25.237Z,86.38
2018-12-12T00:15:51.350Z,86.86
2018-12-12T00:16:17.450Z,86.38
2018-12-12T00:16:43.563Z,86.19
2018-12-12T00:17:09.668Z,86
2018-12-12T00:17:35.772Z,86
2018-12-12T00:18:01.893Z,86.29
2018-12-12T00:18:28.020Z,86.29
2018-12-12T00:18:54.123Z,86.29
2018-12-12T00:19:20.263Z,86.29
2018-12-12T00:19:46.396Z,86.19
2018-12-12T00:20:12.535Z,86.38
2018-12-12T00:20:38.631Z,85.72
2018-12-12T00:21:04.742Z,86.47
2018-12-12T00:21:30.841Z,86.19
2018-12-12T00:21:56.950Z,86.1
2018-12-12T00:22:23.082Z,86.1
2018-12-12T00:22:49.194Z,85.62
2018-12-12T00:23:15.321Z,86.76
2018-12-12T00:23:41.427Z,86.47
2018-12-12T00:24:07.533Z,85.62
2018-12-12T00:24:33.639Z,86.67
2018-12-12T00:24:59.740Z,86.57
2018-12-12T00:25:25.847Z,86.47
2018-12-12T00:25:51.993Z,86.38
2018-12-12T00:26:18.110Z,86.38
2018-12-12T00:26:44.249Z,86.38
2018-12-12T00:27:10.348Z,86.47
2018-12-12T00:27:36.447Z,85.53
2018-12-12T00:28:02.554Z,86.1
2018-12-12T00:28:28.666Z,86.29
2018-12-12T00:28:54.765Z,86.57
2018-12-12T00:29:20.869Z,86.19
2018-12-12T00:29:47.010Z,86.19
2018-12-12T00:30:13.116Z,86.47
2018-12-12T00:30:39.220Z,86.47
2018-12-12T00:31:05.330Z,85.62
2018-12-12T00:31:31.433Z,86
2018-12-12T00:31:57.535Z,86.19
2018-12-12T00:32:23.652Z,85.72
2018-12-12T00:32:49.750Z,86.29
2018-12-12T00:33:15.856Z,86.19
2018-12-12T00:33:41.992Z,86
2018-12-12T00:34:08.093Z,86.29
2018-12-12T00:34:34.200Z,85.96
2018-12-12T00:35:00.307Z,86.19
2018-12-12T00:35:26.406Z,86.43
2018-12-12T00:35:52.550Z,86.63
2018-12-12T00:36:18.656Z,86.29
2018-12-12T00:36:44.758Z,86.47
2018-12-12T00:37:10.866Z,87.05
2018-12-12T00:37:36.996Z,86.86
2018-12-12T00:38:03.102Z,86.76
2018-12-12T00:38:29.208Z,86.67
2018-12-12T00:38:55.310Z,86.67
2018-12-12T00:39:21.445Z,86.67
2018-12-12T00:39:47.550Z,86.67
2018-12-12T00:40:13.656Z,86.86
2018-12-12T00:40:39.767Z,86.47
2018-12-12T00:41:05.874Z,86.86
2018-12-12T00:41:31.979Z,86.86
2018-12-12T00:41:58.082Z,86.86
2018-12-12T00:42:24.211Z,86.86
2018-12-12T00:42:50.344Z,86.38
2018-12-12T00:43:16.443Z,86.67
2018-12-12T00:43:42.544Z,86.47
2018-12-12T00:44:08.645Z,86
2018-12-12T00:44:34.757Z,86.1
2018-12-12T00:45:00.857Z,86.38
2018-12-12T00:45:26.963Z,86.47
2018-12-12T00:45:53.070Z,86.57
2018-12-12T00:46:19.200Z,86.67
2018-12-12T00:46:45.301Z,86.67
2018-12-12T00:47:11.406Z,86.38
2018-12-12T00:47:37.528Z,86.47
2018-12-12T00:48:03.656Z,86.29
2018-12-12T00:48:29.766Z,86.1
2018-12-12T00:48:55.858Z,86.1
2018-12-12T00:49:21.961Z,86.29
2018-12-12T00:49:48.095Z,86.19
2018-12-12T00:50:14.211Z,86.38
2018-12-12T00:50:40.335Z,86.29
2018-12-12T00:51:06.439Z,86.1
2018-12-12T00:51:32.603Z,86.29
2018-12-12T00:51:58.708Z,86.19
2018-12-12T00:52:24.841Z,86.19
2018-12-12T00:52:50.988Z,85.96
2018-12-12T00:53:17.072Z,86.15
2018-12-12T00:53:43.180Z,86.29
2018-12-12T00:54:09.285Z,86.86
2018-12-12T00:54:35.416Z,86.57
2018-12-12T00:55:01.521Z,86.57
2018-12-12T00:55:27.629Z,86.67
2018-12-12T00:55:53.740Z,86.19
2018-12-12T00:56:19.834Z,86.29
2018-12-12T00:56:45.942Z,86.29
2018-12-12T00:57:12.049Z,86.67
2018-12-12T00:57:38.158Z,86.47
2018-12-12T00:58:04.266Z,86.47
2018-12-12T00:58:30.373Z,86.29
2018-12-12T00:58:56.479Z,86.19
2018-12-12T00:59:22.583Z,86.38
2018-12-12T00:59:48.694Z,86.1
2018-12-12T01:00:14.792Z,85.91
2018-12-12T01:00:40.902Z,86.29
2018-12-12T01:01:07.012Z,86.05
2018-12-12T01:01:33.115Z,86
2018-12-12T01:01:59.252Z,85.96
2018-12-12T01:02:25.361Z,86.1
2018-12-12T01:02:51.461Z,86.05
2018-12-12T01:03:17.567Z,86.43
2018-12-12T01:03:43.669Z,86.57
2018-12-12T01:04:09.768Z,86.24
2018-12-12T01:04:35.878Z,86.29
2018-12-12T01:05:01.977Z,86.53
2018-12-12T01:05:28.088Z,86.15
2018-12-12T01:05:54.188Z,86.19
2018-12-12T01:06:20.323Z,86.47
2018-12-12T01:06:46.422Z,86.43
2018-12-12T01:07:12.527Z,86.67
2018-12-12T01:07:38.629Z,86.76
2018-12-12T01:08:04.729Z,86.76
2018-12-12T01:08:30.837Z,86.43
2018-12-12T01:08:56.945Z,86.86
2018-12-12T01:09:23.052Z,86.34
2018-12-12T01:09:49.153Z,86.24
2018-12-12T01:10:15.268Z,86.34
2018-12-12T01:10:41.397Z,86.43
2018-12-12T01:11:07.501Z,86.72
2018-12-12T01:11:33.607Z,86.82
2018-12-12T01:11:59.709Z,86.53
2018-12-12T01:12:25.817Z,86.63
2018-12-12T01:12:51.925Z,86.72
2018-12-12T01:13:18.029Z,86.72
2018-12-12T01:13:44.135Z,86.86
2018-12-12T01:14:10.242Z,86.82
2018-12-12T01:14:36.343Z,86.63
2018-12-12T01:15:02.453Z,85.96
2018-12-12T01:15:28.637Z,86.05
2018-12-12T01:15:54.748Z,86.43
2018-12-12T01:16:20.854Z,86.72
2018-12-12T01:16:46.958Z,86.43
2018-12-12T01:17:13.063Z,86.63
2018-12-12T01:17:39.170Z,86.72
2018-12-12T01:18:05.270Z,86.34
2018-12-12T01:18:31.378Z,86.72
2018-12-12T01:18:57.489Z,87.38
2018-12-12T01:19:23.590Z,87.57
2018-12-12T01:19:49.720Z,87.38
2018-12-12T01:20:15.827Z,87.57
2018-12-12T01:20:41.931Z,87.19
2018-12-12T01:21:08.034Z,87.19
2018-12-12T01:21:34.164Z,87.1
2018-12-12T01:22:00.300Z,87.19
2018-12-12T01:22:26.412Z,87.48
2018-12-12T01:22:52.513Z,87.38
2018-12-12T01:23:18.622Z,87.19
2018-12-12T01:23:44.725Z,87.19
2018-12-12T01:24:10.855Z,87.01
2018-12-12T01:24:36.989Z,86.82
2018-12-12T01:25:03.126Z,87.38
2018-12-12T01:25:29.226Z,87.29
2018-12-12T01:25:55.362Z,87.19
2018-12-12T01:26:21.477Z,87.57
2018-12-12T01:26:47.579Z,87.48
2018-12-12T01:27:13.684Z,87.19
2018-12-12T01:27:39.825Z,87.29
2018-12-12T01:28:05.925Z,87.19
2018-12-12T01:28:32.028Z,87.38
2018-12-12T01:28:58.142Z,87.38
2018-12-12T01:29:24.248Z,87.38
2018-12-12T01:29:50.348Z,87.48
2018-12-12T01:30:16.458Z,87.38
2018-12-12T01:30:42.588Z,87.19
2018-12-12T01:31:08.739Z,87.48
2018-12-12T01:31:35.083Z,87.48
2018-12-12T01:32:01.251Z,87.38
2018-12-12T01:32:27.391Z,87.76
2018-12-12T01:32:53.491Z,87.38
2018-12-12T01:33:19.597Z,87.38
2018-12-12T01:33:45.705Z,87.01
2018-12-12T01:34:11.808Z,87.01
2018-12-12T01:34:37.912Z,87.1
2018-12-12T01:35:04.047Z,87.38
2018-12-12T01:35:30.156Z,87.19
2018-12-12T01:35:56.284Z,87.1
2018-12-12T01:36:22.390Z,87.01
2018-12-12T01:36:48.499Z,87.1
2018-12-12T01:37:14.608Z,87.48
2018-12-12T01:37:40.700Z,87.67
2018-12-12T01:38:06.839Z,87.38
2018-12-12T01:38:32.941Z,87.57
2018-12-12T01:38:59.046Z,87.29
2018-12-12T01:39:25.153Z,87.29
2018-12-12T01:39:51.289Z,87.57
2018-12-12T01:40:17.393Z,87.01
2018-12-12T01:40:43.496Z,87.1
2018-12-12T01:41:09.606Z,87.67
2018-12-12T01:41:35.711Z,87.48
2018-12-12T01:42:01.816Z,87.38
2018-12-12T01:42:27.942Z,87.38
2018-12-12T01:42:54.051Z,87.57
2018-12-12T01:43:20.154Z,87.48
2018-12-12T01:43:46.267Z,87.48
2018-12-12T01:44:12.367Z,87.48
2018-12-12T01:44:38.473Z,87.67
2018-12-12T01:45:04.584Z,87.57
2018-12-12T01:45:30.686Z,87.76
2018-12-12T01:45:56.788Z,87.57
2018-12-12T01:46:22.901Z,87.52
2018-12-12T01:46:49.005Z,87.95
2018-12-12T01:47:15.167Z,88.05
2018-12-12T01:47:41.268Z,88.05
2018-12-12T01:48:07.379Z,88.15
2018-12-12T01:48:33.489Z,88.15
2018-12-12T01:48:59.589Z,88.15
2018-12-12T01:49:25.693Z,87.86
2018-12-12T01:49:51.796Z,88.05
2018-12-12T01:50:17.947Z,88.05
2018-12-12T01:50:44.034Z,87.9
2018-12-12T01:51:10.164Z,87.86
2018-12-12T01:51:36.273Z,87.95
2018-12-12T01:52:02.405Z,87.76
2018-12-12T01:52:28.519Z,87.76
2018-12-12T01:52:54.616Z,88
2018-12-12T01:53:20.724Z,88.24
2018-12-12T01:53:46.827Z,87.95
2018-12-12T01:54:12.939Z,88
2018-12-12T01:54:39.034Z,87.95
2018-12-12T01:55:05.170Z,88.09
2018-12-12T01:55:31.283Z,88.24
2018-12-12T01:55:57.382Z,87.95
2018-12-12T01:56:23.478Z,88.19
2018-12-12T01:56:49.587Z,88.15
2018-12-12T01:57:15.690Z,88
2018-12-12T01:57:41.803Z,88.15
2018-12-12T01:58:07.913Z,87.57
2018-12-12T01:58:34.011Z,88.15
2018-12-12T01:59:00.118Z,88.15
2018-12-12T01:59:26.219Z,88.09
2018-12-12T01:59:52.322Z,88.05
2018-12-12T02:00:18.457Z,88.05
2018-12-12T02:00:44.596Z,87.86
2018-12-12T02:01:10.726Z,87.57
2018-12-12T02:01:36.830Z,87.76
2018-12-12T02:02:02.968Z,87.57
2018-12-12T02:02:29.077Z,87.57
2018-12-12T02:02:55.238Z,87.95
2018-12-12T02:03:21.379Z,87.95
2018-12-12T02:03:47.488Z,87.67
2018-12-12T02:04:13.592Z,88.62
2018-12-12T02:04:39.698Z,88.34
2018-12-12T02:05:05.805Z,87.95
2018-12-12T02:05:31.911Z,88.24
2018-12-12T02:05:58.027Z,88.53
2018-12-12T02:06:24.148Z,88.15
2018-12-12T02:06:50.250Z,88.43
2018-12-12T02:07:16.358Z,88.43
2018-12-12T02:07:42.457Z,88.34
2018-12-12T02:08:08.566Z,88.34
2018-12-12T02:08:34.673Z,88.34
2018-12-12T02:09:01.803Z,88.71
2018-12-12T02:09:27.942Z,88.62
2018-12-12T02:09:54.068Z,88.81
2018-12-12T02:10:20.196Z,88.81
2018-12-12T02:10:46.304Z,88.81
2018-12-12T02:11:12.416Z,89
2018-12-12T02:11:38.520Z,89
2018-12-12T02:12:04.626Z,88.81
2018-12-12T02:12:30.735Z,88.71
2018-12-12T02:12:56.837Z,88.85
2018-12-12T02:13:22.949Z,88.85
2018-12-12T02:13:49.045Z,89.09
2018-12-12T02:14:15.154Z,89.14
2018-12-12T02:14:41.262Z,89
2018-12-12T02:15:07.366Z,88.85
2018-12-12T02:15:33.463Z,89.09
2018-12-12T02:15:59.572Z,89.09
2018-12-12T02:16:25.673Z,88.81
2018-12-12T02:16:51.779Z,88.71
2018-12-12T02:17:17.878Z,89
2018-12-12T02:17:43.988Z,89.09
2018-12-12T02:18:10.106Z,89.04
2018-12-12T02:18:36.205Z,88.85
2018-12-12T02:19:02.307Z,89.04
2018-12-12T02:19:28.408Z,89.04
2018-12-12T02:19:54.546Z,89.14
2018-12-12T02:20:20.677Z,89.09
2018-12-12T02:20:46.782Z,89.09
2018-12-12T02:21:12.890Z,89
2018-12-12T02:21:38.993Z,88.9
2018-12-12T02:22:05.094Z,88.76
2018-12-12T02:22:31.236Z,89.09
2018-12-12T02:22:57.338Z,89.04
2018-12-12T02:23:23.444Z,89.14
2018-12-12T02:23:49.553Z,89.23
2018-12-12T02:24:15.654Z,88.95
2018-12-12T02:24:41.761Z,88.57
2018-12-12T02:25:07.899Z,88.57
2018-12-12T02:25:34.033Z,88.24
2018-12-12T02:26:00.136Z,88.24
2018-12-12T02:26:26.251Z,88.28
2018-12-12T02:26:52.373Z,88.62
2018-12-12T02:27:18.520Z,88.85
2018-12-12T02:27:44.616Z,88.95
2018-12-12T02:28:10.761Z,88.19
2018-12-12T02:28:36.865Z,88.71
2018-12-12T02:29:03.001Z,88.67
2018-12-12T02:29:29.104Z,88.71
2018-12-12T02:29:55.207Z,88.43
2018-12-12T02:30:21.334Z,88.38
2018-12-12T02:30:47.493Z,88.67
2018-12-12T02:31:13.602Z,88.67
2018-12-12T02:31:39.710Z,88.53
2018-12-12T02:32:05.847Z,88.57
2018-12-12T02:32:31.941Z,88.53
2018-12-12T02:32:58.087Z,88.62
2018-12-12T02:33:24.215Z,88.28
2018-12-12T02:33:50.319Z,88.67
2018-12-12T02:34:16.458Z,88.38
2018-12-12T02:34:42.556Z,88.47
2018-12-12T02:35:08.693Z,88.47
2018-12-12T02:35:34.819Z,88.57
2018-12-12T02:36:00.955Z,88.57
2018-12-12T02:36:27.079Z,88.47
2018-12-12T02:36:53.190Z,88.43
2018-12-12T02:37:19.295Z,88.57
2018-12-12T02:37:45.407Z,88.62
2018-12-12T02:38:11.536Z,88.34
2018-12-12T02:38:37.667Z,88.34
2018-12-12T02:39:03.771Z,88.34
2018-12-12T02:39:29.873Z,88.34
2018-12-12T02:39:55.983Z,88.47
2018-12-12T02:40:22.137Z,88.57
2018-12-12T02:40:48.271Z,88.43
2018-12-12T02:41:14.378Z,88.47
2018-12-12T02:41:40.478Z,88.28
2018-12-12T02:42:06.580Z,87.81
2018-12-12T02:42:32.694Z,87.9
2018-12-12T02:42:58.835Z,87.95
2018-12-12T02:43:24.959Z,87.71
2018-12-12T02:43:51.811Z,87.71
2018-12-12T02:44:18.012Z,88.09
2018-12-12T02:44:44.116Z,87.81
2018-12-12T02:45:10.225Z,88
2018-12-12T02:45:36.353Z,87.81
2018-12-12T02:46:02.467Z,88
2018-12-12T02:46:28.561Z,88.19
2018-12-12T02:46:54.659Z,88.28
2018-12-12T02:47:20.774Z,88.19
2018-12-12T02:47:46.897Z,88.09
2018-12-12T02:48:13.042Z,88.09
2018-12-12T02:48:39.213Z,88.19
2018-12-12T02:49:05.367Z,87.9
2018-12-12T02:49:32.364Z,87.62
2018-12-12T02:49:58.527Z,88.09
2018-12-12T02:50:24.627Z,88.19
2018-12-12T02:50:50.737Z,88.19
2018-12-12T02:51:16.842Z,87.81
2018-12-12T02:51:42.942Z,87.81
2018-12-12T02:52:09.047Z,87.71
2018-12-12T02:52:35.155Z,87.62
2018-12-12T02:53:01.256Z,87.71
2018-12-12T02:53:27.390Z,88.38
2018-12-12T02:53:53.499Z,87.71
2018-12-12T02:54:19.608Z,87.52
2018-12-12T02:54:45.764Z,87.43
2018-12-12T02:55:11.872Z,87.71
2018-12-12T02:55:38.002Z,87.71
2018-12-12T02:56:04.131Z,87.76
2018-12-12T02:56:30.238Z,87.57
2018-12-12T02:56:56.376Z,87.52
2018-12-12T02:57:22.477Z,87.71
2018-12-12T02:57:48.587Z,87.71
2018-12-12T02:58:14.684Z,87.62
2018-12-12T02:58:40.823Z,87.52
2018-12-12T02:59:06.982Z,87.24
2018-12-12T02:59:33.090Z,87.52
2018-12-12T02:59:59.212Z,87.43
2018-12-12T03:00:25.323Z,87.62
2018-12-12T03:00:51.427Z,87.71
2018-12-12T03:01:17.590Z,87.71
2018-12-12T03:01:43.730Z,87.62
2018-12-12T03:02:09.863Z,87.43
2018-12-12T03:02:35.961Z,87.62
2018-12-12T03:03:02.074Z,87.43
2018-12-12T03:03:28.173Z,87.81
2018-12-12T03:03:54.290Z,87.52
2018-12-12T03:04:20.396Z,87.24
2018-12-12T03:04:46.497Z,87.52
2018-12-12T03:05:12.633Z,87.52
2018-12-12T03:05:38.773Z,87.52
2018-12-12T03:06:04.867Z,87.62
2018-12-12T03:06:30.967Z,87.71
2018-12-12T03:06:57.078Z,87.62
2018-12-12T03:07:23.181Z,87.81
2018-12-12T03:07:49.283Z,87.05
2018-12-12T03:08:15.407Z,87.71
2018-12-12T03:08:41.521Z,87.43
2018-12-12T03:09:07.623Z,86.95
2018-12-12T03:09:33.765Z,87.43
2018-12-12T03:09:59.871Z,87.52
2018-12-12T03:10:25.979Z,87.43
2018-12-12T03:10:52.074Z,87.34
2018-12-12T03:11:18.207Z,87.24
2018-12-12T03:11:44.314Z,87.38
2018-12-12T03:12:10.420Z,87.95
2018-12-12T03:12:36.553Z,87.57
2018-12-12T03:13:02.659Z,87.76
2018-12-12T03:13:28.763Z,87.67
2018-12-12T03:13:54.865Z,87.14
2018-12-12T03:14:20.972Z,87.52
2018-12-12T03:14:47.073Z,87.62
2018-12-12T03:15:13.179Z,87.48
2018-12-12T03:15:39.302Z,87.57
2018-12-12T03:16:05.409Z,87.81
2018-12-12T03:16:31.516Z,87.62
2018-12-12T03:16:57.623Z,87.71
2018-12-12T03:17:23.747Z,88.19
2018-12-12T03:17:49.854Z,88.28
2018-12-12T03:18:15.964Z,87.71
2018-12-12T03:18:42.067Z,87.81
2018-12-12T03:19:08.171Z,87.52
2018-12-12T03:19:34.307Z,87.43
2018-12-12T03:20:00.414Z,87.81
2018-12-12T03:20:26.513Z,87.62
2018-12-12T03:20:52.689Z,87.71
2018-12-12T03:21:18.750Z,87.71
2018-12-12T03:21:44.853Z,87.62
2018-12-12T03:22:10.990Z,87.38
2018-12-12T03:22:37.159Z,87.48
2018-12-12T03:23:03.295Z,88.19
2018-12-12T03:23:29.407Z,88.19
2018-12-12T03:23:55.541Z,88.09
2018-12-12T03:24:21.642Z,88.19
2018-12-12T03:24:47.749Z,88.15
2018-12-12T03:25:13.850Z,88.15
2018-12-12T03:25:39.987Z,88
2018-12-12T03:26:06.098Z,88
2018-12-12T03:26:32.229Z,88.19
2018-12-12T03:26:58.325Z,88.19
2018-12-12T03:27:24.433Z,87.9
2018-12-12T03:27:50.546Z,88.19
2018-12-12T03:28:16.724Z,87.81
2018-12-12T03:28:42.888Z,88.05
2018-12-12T03:29:09.015Z,88.19
2018-12-12T03:29:35.118Z,88.28
2018-12-12T03:30:01.225Z,88.15
2018-12-12T03:30:27.401Z,88.09
2018-12-12T03:30:53.715Z,87.62
2018-12-12T03:31:19.822Z,88.28
2018-12-12T03:31:45.956Z,88.19
2018-12-12T03:32:12.088Z,87.62
2018-12-12T03:32:38.292Z,87.52
2018-12-12T03:33:04.368Z,87.62
2018-12-12T03:33:30.565Z,87.62
2018-12-12T03:33:56.669Z,87.24
2018-12-12T03:34:22.778Z,87.14
2018-12-12T03:34:48.907Z,87.01
2018-12-12T03:35:15.014Z,87.81
2018-12-12T03:35:41.176Z,87.81
2018-12-12T03:36:07.283Z,87.19
2018-12-12T03:36:33.423Z,87.19
2018-12-12T03:36:59.556Z,87.9
2018-12-12T03:37:25.687Z,87.76
2018-12-12T03:37:51.829Z,87.71
2018-12-12T03:38:17.934Z,87.71
2018-12-12T03:38:44.092Z,87.81
2018-12-12T03:39:10.195Z,87.71
2018-12-12T03:39:36.326Z,87.81
2018-12-12T03:40:02.439Z,88
2018-12-12T03:40:28.543Z,87.9
2018-12-12T03:40:54.675Z,87.34
2018-12-12T03:41:20.783Z,87.9
2018-12-12T03:41:46.916Z,87.05
2018-12-12T03:42:13.014Z,87.62
2018-12-12T03:42:39.117Z,87.14
2018-12-12T03:43:05.227Z,87.43
2018-12-12T03:43:31.333Z,87.05
2018-12-12T03:43:57.438Z,87.24
2018-12-12T03:44:23.539Z,87.81
2018-12-12T03:44:49.647Z,87.24
2018-12-12T03:45:15.804Z,87.9
2018-12-12T03:45:41.914Z,87.9
2018-12-12T03:46:08.014Z,87.86
2018-12-12T03:46:34.119Z,87.81
2018-12-12T03:47:00.228Z,87.71
2018-12-12T03:47:26.325Z,87.71
2018-12-12T03:47:52.456Z,88
2018-12-12T03:48:18.561Z,87.62
2018-12-12T03:48:44.668Z,87.14
2018-12-12T03:49:10.770Z,87.52
2018-12-12T03:49:36.878Z,86.95
2018-12-12T03:50:02.985Z,87.43
2018-12-12T03:50:29.113Z,87.34
2018-12-12T03:50:55.220Z,87.24
2018-12-12T03:51:21.358Z,86.86
2018-12-12T03:51:47.487Z,87.14
2018-12-12T03:52:13.598Z,87.34
2018-12-12T03:52:39.726Z,87.24
2018-12-12T03:53:05.885Z,87.34
2018-12-12T03:53:32.014Z,87.24
2018-12-12T03:53:58.118Z,87.43
2018-12-12T03:54:24.218Z,87.24
2018-12-12T03:54:50.323Z,87.52
2018-12-12T03:55:16.434Z,87.24
2018-12-12T03:55:42.534Z,87.14
2018-12-12T03:56:08.665Z,87.43
2018-12-12T03:56:34.757Z,87.34
2018-12-12T03:57:00.893Z,86.76
2018-12-12T03:57:26.993Z,86.95
2018-12-12T03:57:53.106Z,86.86
2018-12-12T03:58:19.207Z,86.67
2018-12-12T03:58:45.345Z,86.76
2018-12-12T03:59:11.447Z,86.38
2018-12-12T03:59:37.553Z,86.38
2018-12-12T04:00:03.731Z,86.38
2018-12-12T04:00:29.837Z,86.29
2018-12-12T04:00:55.936Z,86.67
2018-12-12T04:01:22.038Z,86.95
2018-12-12T04:01:48.174Z,86.57
2018-12-12T04:02:14.338Z,86.86
2018-12-12T04:02:40.472Z,86.19
2018-12-12T04:03:06.604Z,86.86
2018-12-12T04:03:32.768Z,86.57
2018-12-12T04:03:58.877Z,86.57
2018-12-12T04:04:25.002Z,86.19
2018-12-12T04:04:51.167Z,86.19
2018-12-12T04:05:17.283Z,86.38
2018-12-12T04:05:43.407Z,86.67
2018-12-12T04:06:09.542Z,86.86
2018-12-12T04:06:35.732Z,86.67
2018-12-12T04:07:01.880Z,86.76
2018-12-12T04:07:27.979Z,86.67
2018-12-12T04:07:54.121Z,86.67
2018-12-12T04:08:20.220Z,86.86
2018-12-12T04:08:46.320Z,86.86
2018-12-12T04:09:12.453Z,86.67
2018-12-12T04:09:38.669Z,86.57
2018-12-12T04:10:04.790Z,87.05
2018-12-12T04:10:30.904Z,86.57
2018-12-12T04:10:57.004Z,86.57
2018-12-12T04:11:23.112Z,86.57
2018-12-12T04:11:49.212Z,86.57
2018-12-12T04:12:15.378Z,86.29
2018-12-12T04:12:41.508Z,86.38
2018-12-12T04:13:07.647Z,86.47
2018-12-12T04:13:33.753Z,86.1
2018-12-12T04:13:59.854Z,86.1
2018-12-12T04:14:25.955Z,86.29
2018-12-12T04:14:52.055Z,86.29
2018-12-12T04:15:18.170Z,85.81
2018-12-12T04:15:44.267Z,86.67
2018-12-12T04:16:10.402Z,86.67
2018-12-12T04:16:36.500Z,86.29
2018-12-12T04:17:02.612Z,85.62
2018-12-12T04:17:28.727Z,85.81
2018-12-12T04:17:54.826Z,85.62
2018-12-12T04:18:20.929Z,85.72
2018-12-12T04:18:47.041Z,85.81
2018-12-12T04:19:13.173Z,85.72
2018-12-12T04:19:39.274Z,85.72
2018-12-12T04:20:05.415Z,85.62
2018-12-12T04:20:31.548Z,86
2018-12-12T04:20:57.679Z,85.81
2018-12-12T04:21:23.823Z,85.62
2018-12-12T04:21:49.959Z,85.81
2018-12-12T04:22:16.118Z,85.62
2018-12-12T04:22:42.218Z,85.43
2018-12-12T04:23:09.322Z,85.43
2018-12-12T04:23:35.521Z,85.81
2018-12-12T04:24:01.643Z,85.81
2018-12-12T04:24:27.775Z,86
2018-12-12T04:24:53.879Z,85.81
2018-12-12T04:25:20.017Z,85.34
2018-12-12T04:25:46.142Z,85.34
2018-12-12T04:26:12.251Z,85.62
2018-12-12T04:26:38.351Z,85.43
2018-12-12T04:27:04.451Z,85.15
2018-12-12T04:27:30.582Z,85.24
2018-12-12T04:27:56.693Z,84.29
2018-12-12T04:28:22.792Z,84.39
2018-12-12T04:28:48.895Z,84.95
2018-12-12T04:29:15.003Z,84.2
2018-12-12T04:29:41.104Z,84.58
2018-12-12T04:30:07.238Z,84.72
2018-12-12T04:30:33.394Z,84.16
2018-12-12T04:30:59.501Z,84.91
2018-12-12T04:31:25.608Z,84.44
2018-12-12T04:31:51.708Z,84.63
2018-12-12T04:32:17.847Z,84.16
2018-12-12T04:32:43.944Z,84.91
2018-12-12T04:33:10.084Z,85.77
2018-12-12T04:33:36.185Z,85.86
2018-12-12T04:34:02.289Z,85.86
2018-12-12T04:34:29.421Z,85.77
2018-12-12T04:34:55.478Z,85.77
2018-12-12T04:35:21.604Z,85.68
2018-12-12T04:35:47.712Z,85.77
2018-12-12T04:36:13.842Z,85.77
2018-12-12T04:36:39.947Z,86.05
2018-12-12T04:37:06.075Z,86.34
2018-12-12T04:37:32.208Z,85.68
2018-12-12T04:37:58.318Z,85.86
2018-12-12T04:38:24.451Z,85.96
2018-12-12T04:38:50.551Z,86.34
2018-12-12T04:39:16.674Z,86.15
2018-12-12T04:39:42.791Z,86.15
2018-12-12T04:40:08.893Z,86.53
2018-12-12T04:40:35.030Z,86.34
2018-12-12T04:41:01.138Z,86.43
2018-12-12T04:41:27.239Z,86.05
2018-12-12T04:41:53.379Z,86.15
2018-12-12T04:42:19.684Z,86.15
2018-12-12T04:42:45.794Z,86.05
2018-12-12T04:43:11.930Z,86.53
2018-12-12T04:43:38.067Z,86.63
2018-12-12T04:44:04.169Z,86.15
2018-12-12T04:44:30.273Z,85.77
2018-12-12T04:44:56.431Z,85.96
2018-12-12T04:45:22.539Z,85.77
2018-12-12T04:45:48.676Z,86.24
2018-12-12T04:46:14.775Z,86.43
2018-12-12T04:46:40.908Z,86.43
2018-12-12T04:47:07.013Z,86.63
2018-12-12T04:47:33.118Z,86.34
2018-12-12T04:48:00.240Z,86.34
2018-12-12T04:48:26.348Z,86.72
2018-12-12T04:48:52.454Z,86.72
2018-12-12T04:49:18.592Z,86.53
2018-12-12T04:49:44.703Z,86.91
2018-12-12T04:50:10.901Z,87.29
2018-12-12T04:50:36.951Z,87.19
2018-12-12T04:51:03.054Z,87.19
2018-12-12T04:51:29.183Z,87.19
2018-12-12T04:51:55.305Z,87.29
2018-12-12T04:52:21.409Z,86.53
2018-12-12T04:52:47.510Z,86.43
2018-12-12T04:53:13.612Z,86.63
2018-12-12T04:53:39.714Z,86.72
2018-12-12T04:54:05.817Z,86.15
2018-12-12T04:54:31.928Z,86.34
2018-12-12T04:54:58.055Z,86.05
2018-12-12T04:55:24.164Z,86.15
2018-12-12T04:55:50.264Z,86.34
2018-12-12T04:56:16.373Z,86.53
2018-12-12T04:56:42.483Z,86.53
2018-12-12T04:57:08.637Z,85.77
2018-12-12T04:57:34.736Z,86.53
2018-12-12T04:58:00.846Z,86.34
2018-12-12T04:58:26.975Z,86.53
2018-12-12T04:58:53.087Z,86.63
2018-12-12T04:59:19.227Z,86.05
2018-12-12T04:59:45.329Z,86.24
2018-12-12T05:00:11.430Z,86.15
2018-12-12T05:00:37.564Z,86.53
2018-12-12T05:01:03.705Z,86.63
2018-12-12T05:01:29.806Z,86.63
2018-12-12T05:01:55.962Z,86.72
2018-12-12T05:02:22.069Z,86.53
2018-12-12T05:02:48.208Z,86.34
2018-12-12T05:03:14.311Z,86.53
2018-12-12T05:03:40.414Z,86.43
2018-12-12T05:04:06.576Z,86.34
2018-12-12T05:04:32.679Z,86.24
2018-12-12T05:04:58.786Z,86.43
2018-12-12T05:05:24.893Z,86.53
2018-12-12T05:05:51.024Z,86.63
2018-12-12T05:06:17.129Z,86.34
2018-12-12T05:06:43.263Z,86.34
2018-12-12T05:07:09.364Z,86.82
2018-12-12T05:07:35.472Z,86.72
2018-12-12T05:08:01.570Z,86.82
2018-12-12T05:08:27.701Z,86.34
2018-12-12T05:08:53.814Z,86.34
2018-12-12T05:09:19.921Z,86.53
2018-12-12T05:09:46.059Z,86.53
2018-12-12T05:10:12.210Z,86.82
2018-12-12T05:10:38.335Z,86.34
2018-12-12T05:11:04.478Z,87.19
2018-12-12T05:11:30.581Z,86.63
2018-12-12T05:11:56.737Z,86.63
2018-12-12T05:12:22.838Z,86.91
2018-12-12T05:12:48.949Z,86.24
2018-12-12T05:13:15.086Z,86.53
2018-12-12T05:13:41.190Z,86.43
2018-12-12T05:14:07.293Z,86.24
2018-12-12T05:14:33.430Z,86.24
2018-12-12T05:14:59.572Z,86.53
2018-12-12T05:15:25.677Z,86.63
2018-12-12T05:15:51.807Z,86.34
2018-12-12T05:16:17.915Z,86.43
2018-12-12T05:16:44.023Z,86.15
2018-12-12T05:17:10.155Z,86.63
2018-12-12T05:17:36.260Z,86.43
2018-12-12T05:18:02.354Z,86.24
2018-12-12T05:18:28.493Z,85.96
2018-12-12T05:18:54.647Z,86.43
2018-12-12T05:19:20.694Z,86.24
2018-12-12T05:19:47.319Z,86.34
2018-12-12T05:20:13.427Z,86.15
2018-12-12T05:20:39.522Z,86.24
2018-12-12T05:21:05.631Z,86.05
2018-12-12T05:21:31.734Z,86.63
2018-12-12T05:21:57.843Z,86.53
2018-12-12T05:22:23.942Z,86.34
2018-12-12T05:22:50.047Z,86.05
2018-12-12T05:23:16.157Z,86.43
2018-12-12T05:23:42.265Z,86.15
2018-12-12T05:24:08.369Z,86.34
2018-12-12T05:24:34.476Z,86.15
2018-12-12T05:25:00.585Z,86.63
2018-12-12T05:25:26.680Z,87.29
2018-12-12T05:25:52.789Z,87.29
2018-12-12T05:26:18.893Z,86.82
2018-12-12T05:26:44.995Z,86.82
2018-12-12T05:27:11.161Z,87.01
2018-12-12T05:27:37.269Z,87.19
2018-12-12T05:28:03.371Z,87.19
2018-12-12T05:28:29.481Z,86.63
2018-12-12T05:28:55.594Z,86.53
2018-12-12T05:29:21.695Z,86.63
2018-12-12T05:29:47.826Z,87.29
2018-12-12T05:30:13.933Z,87.1
2018-12-12T05:30:40.032Z,87.29
2018-12-12T05:31:06.141Z,87.38
2018-12-12T05:31:32.249Z,87.38
2018-12-12T05:31:59.350Z,86.43
2018-12-12T05:32:25.460Z,86.63
2018-12-12T05:32:51.563Z,86.43
2018-12-12T05:33:17.698Z,86.34
2018-12-12T05:33:43.830Z,86.53
2018-12-12T05:34:09.967Z,87.1
2018-12-12T05:34:36.071Z,87.38
2018-12-12T05:35:02.171Z,87.38
2018-12-12T05:35:28.306Z,87.38
2018-12-12T05:35:54.435Z,87.38
2018-12-12T05:36:20.540Z,87.01
2018-12-12T05:36:46.674Z,86.72
2018-12-12T05:37:12.773Z,86.91
2018-12-12T05:37:38.877Z,87.19